sensor_id;sensor_type;location;lat;lon;timestamp;temperature;humidity
45685;DHT22;46836;48.388;16.210;2024-02-26T00:02:19;3.00;99.90
45685;DHT22;46836;48.388;16.210;2024-02-26T00:04:46;3.00;99.90
45685;DHT22;46836;48.388;16.210;2024-02-26T00:07:13;3.10;99.90
45685;DHT22;46836;48.388;16.210;2024-02-26T00:09:40;3.10;99.90
45685;DHT22;46836;48.388;16.210;2024-02-26T00:12:07;3.10;99.90
45685;DHT22;46836;48.388;16.210;2024-02-26T00:14:34;3.20;99.90
45685;DHT22;46836;48.388;16.210;2024-02-26T00:17:02;3.20;99.90
45685;DHT22;46836;48.388;16.210;2024-02-26T00:19:29;3.20;99.90
45685;DHT22;46836;48.388;16.210;2024-02-26T00:21:56;3.30;99.90
45685;DHT22;46836;48.388;16.210;2024-02-26T00:24:23;3.40;99.90
45685;DHT22;46836;48.388;16.210;2024-02-26T00:26:51;3.50;99.90
45685;DHT22;46836;48.388;16.210;2024-02-26T00:29:21;3.70;99.90
45685;DHT22;46836;48.388;16.210;2024-02-26T00:31:49;3.90;99.90
45685;DHT22;46836;48.388;16.210;2024-02-26T00:34:16;4.00;99.90
45685;DHT22;46836;48.388;16.210;2024-02-26T00:36:43;4.20;99.90
45685;DHT22;46836;48.388;16.210;2024-02-26T00:39:11;4.40;99.90
45685;DHT22;46836;48.388;16.210;2024-02-26T00:41:40;4.50;99.90
45685;DHT22;46836;48.388;16.210;2024-02-26T00:44:08;4.70;99.90
45685;DHT22;46836;48.388;16.210;2024-02-26T00:46:35;4.80;99.90
45685;DHT22;46836;48.388;16.210;2024-02-26T00:49:02;4.80;99.90
45685;DHT22;46836;48.388;16.210;2024-02-26T00:51:30;4.90;99.90
45685;DHT22;46836;48.388;16.210;2024-02-26T00:53:57;5.00;99.90
45685;DHT22;46836;48.388;16.210;2024-02-26T00:56:25;5.10;99.90
45685;DHT22;46836;48.388;16.210;2024-02-26T00:58:52;5.20;99.90
45685;DHT22;46836;48.388;16.210;2024-02-26T01:01:19;5.30;99.90
45685;DHT22;46836;48.388;16.210;2024-02-26T01:03:46;5.30;99.90
45685;DHT22;46836;48.388;16.210;2024-02-26T01:06:14;5.40;99.90
45685;DHT22;46836;48.388;16.210;2024-02-26T01:08:41;5.40;99.90
45685;DHT22;46836;48.388;16.210;2024-02-26T01:11:08;5.40;99.90
45685;DHT22;46836;48.388;16.210;2024-02-26T01:13:35;5.50;99.90
45685;DHT22;46836;48.388;16.210;2024-02-26T01:16:02;5.50;99.90
45685;DHT22;46836;48.388;16.210;2024-02-26T01:18:29;5.50;99.90
45685;DHT22;46836;48.388;16.210;2024-02-26T01:20:57;5.50;99.90
45685;DHT22;46836;48.388;16.210;2024-02-26T01:23:24;5.50;99.90
45685;DHT22;46836;48.388;16.210;2024-02-26T01:25:51;5.40;99.90
45685;DHT22;46836;48.388;16.210;2024-02-26T01:28:18;5.40;99.90
45685;DHT22;46836;48.388;16.210;2024-02-26T01:30:45;5.40;99.90
45685;DHT22;46836;48.388;16.210;2024-02-26T01:33:12;5.40;99.90
45685;DHT22;46836;48.388;16.210;2024-02-26T01:35:39;5.40;99.90
45685;DHT22;46836;48.388;16.210;2024-02-26T01:38:07;5.40;99.90
45685;DHT22;46836;48.388;16.210;2024-02-26T01:40:34;5.40;99.90
45685;DHT22;46836;48.388;16.210;2024-02-26T01:43:02;5.40;99.90
45685;DHT22;46836;48.388;16.210;2024-02-26T01:45:28;5.40;99.90
45685;DHT22;46836;48.388;16.210;2024-02-26T01:47:56;5.40;99.90
45685;DHT22;46836;48.388;16.210;2024-02-26T01:50:24;5.30;99.90
45685;DHT22;46836;48.388;16.210;2024-02-26T01:52:52;5.40;99.90
45685;DHT22;46836;48.388;16.210;2024-02-26T01:55:22;5.40;99.90
45685;DHT22;46836;48.388;16.210;2024-02-26T01:57:51;5.30;99.90
45685;DHT22;46836;48.388;16.210;2024-02-26T02:00:20;5.40;99.90
45685;DHT22;46836;48.388;16.210;2024-02-26T02:02:49;5.40;99.90
45685;DHT22;46836;48.388;16.210;2024-02-26T02:05:17;5.30;99.90
45685;DHT22;46836;48.388;16.210;2024-02-26T02:07:45;5.30;99.90
45685;DHT22;46836;48.388;16.210;2024-02-26T02:10:13;5.30;99.90
45685;DHT22;46836;48.388;16.210;2024-02-26T02:12:40;5.30;99.90
45685;DHT22;46836;48.388;16.210;2024-02-26T02:15:08;5.30;99.90
45685;DHT22;46836;48.388;16.210;2024-02-26T02:17:35;5.30;99.90
45685;DHT22;46836;48.388;16.210;2024-02-26T02:20:02;5.30;99.90
45685;DHT22;46836;48.388;16.210;2024-02-26T02:22:30;5.20;99.90
45685;DHT22;46836;48.388;16.210;2024-02-26T02:24:59;5.20;99.90
45685;DHT22;46836;48.388;16.210;2024-02-26T02:27:28;5.20;99.90
45685;DHT22;46836;48.388;16.210;2024-02-26T02:29:55;5.20;99.90
45685;DHT22;46836;48.388;16.210;2024-02-26T02:32:23;5.20;99.90
45685;DHT22;46836;48.388;16.210;2024-02-26T02:34:51;5.20;99.90
45685;DHT22;46836;48.388;16.210;2024-02-26T02:37:18;5.20;99.90
45685;DHT22;46836;48.388;16.210;2024-02-26T02:39:45;5.20;99.90
45685;DHT22;46836;48.388;16.210;2024-02-26T02:42:12;5.20;99.90
45685;DHT22;46836;48.388;16.210;2024-02-26T02:44:39;5.20;99.90
45685;DHT22;46836;48.388;16.210;2024-02-26T02:47:06;5.20;99.90
45685;DHT22;46836;48.388;16.210;2024-02-26T02:49:34;5.20;99.90
45685;DHT22;46836;48.388;16.210;2024-02-26T02:52:01;5.20;99.90
45685;DHT22;46836;48.388;16.210;2024-02-26T02:54:28;5.10;99.90
45685;DHT22;46836;48.388;16.210;2024-02-26T02:56:55;5.20;99.90
45685;DHT22;46836;48.388;16.210;2024-02-26T02:59:22;5.20;99.90
45685;DHT22;46836;48.388;16.210;2024-02-26T03:01:50;5.10;99.90
45685;DHT22;46836;48.388;16.210;2024-02-26T03:04:17;5.10;99.90
45685;DHT22;46836;48.388;16.210;2024-02-26T03:06:44;5.20;99.90
45685;DHT22;46836;48.388;16.210;2024-02-26T03:09:11;5.20;99.90
45685;DHT22;46836;48.388;16.210;2024-02-26T03:11:38;5.20;99.90
45685;DHT22;46836;48.388;16.210;2024-02-26T03:14:07;5.20;99.90
45685;DHT22;46836;48.388;16.210;2024-02-26T03:16:34;5.20;99.90
45685;DHT22;46836;48.388;16.210;2024-02-26T03:19:01;5.20;99.90
45685;DHT22;46836;48.388;16.210;2024-02-26T03:21:30;5.20;99.90
45685;DHT22;46836;48.388;16.210;2024-02-26T03:23:57;5.20;99.90
45685;DHT22;46836;48.388;16.210;2024-02-26T03:26:24;5.20;99.90
45685;DHT22;46836;48.388;16.210;2024-02-26T03:28:51;5.20;99.90
45685;DHT22;46836;48.388;16.210;2024-02-26T03:31:18;5.20;99.90
45685;DHT22;46836;48.388;16.210;2024-02-26T03:33:46;5.20;99.90
45685;DHT22;46836;48.388;16.210;2024-02-26T03:36:13;5.20;99.90
45685;DHT22;46836;48.388;16.210;2024-02-26T03:38:40;5.20;99.90
45685;DHT22;46836;48.388;16.210;2024-02-26T03:41:08;5.20;99.90
45685;DHT22;46836;48.388;16.210;2024-02-26T03:43:35;5.20;99.90
45685;DHT22;46836;48.388;16.210;2024-02-26T03:46:02;5.20;99.90
45685;DHT22;46836;48.388;16.210;2024-02-26T03:48:29;5.20;99.90
45685;DHT22;46836;48.388;16.210;2024-02-26T03:50:56;5.20;99.90
45685;DHT22;46836;48.388;16.210;2024-02-26T03:53:24;5.20;99.90
45685;DHT22;46836;48.388;16.210;2024-02-26T03:55:51;5.20;99.90
45685;DHT22;46836;48.388;16.210;2024-02-26T03:58:19;5.20;99.90
45685;DHT22;46836;48.388;16.210;2024-02-26T04:00:46;5.20;99.90
45685;DHT22;46836;48.388;16.210;2024-02-26T04:03:14;5.20;99.90
45685;DHT22;46836;48.388;16.210;2024-02-26T04:05:41;5.20;99.90
45685;DHT22;46836;48.388;16.210;2024-02-26T04:08:09;5.20;99.90
45685;DHT22;46836;48.388;16.210;2024-02-26T04:10:37;5.30;99.90
45685;DHT22;46836;48.388;16.210;2024-02-26T04:13:07;5.20;99.90
45685;DHT22;46836;48.388;16.210;2024-02-26T04:15:34;5.20;99.90
45685;DHT22;46836;48.388;16.210;2024-02-26T04:18:01;5.20;99.90
45685;DHT22;46836;48.388;16.210;2024-02-26T04:20:30;5.10;99.90
45685;DHT22;46836;48.388;16.210;2024-02-26T04:22:57;5.10;99.90
45685;DHT22;46836;48.388;16.210;2024-02-26T04:25:24;5.10;99.90
45685;DHT22;46836;48.388;16.210;2024-02-26T04:27:51;5.10;99.90
45685;DHT22;46836;48.388;16.210;2024-02-26T04:30:18;5.10;99.90
45685;DHT22;46836;48.388;16.210;2024-02-26T04:32:45;5.00;99.90
45685;DHT22;46836;48.388;16.210;2024-02-26T04:35:12;5.00;99.90
45685;DHT22;46836;48.388;16.210;2024-02-26T04:37:39;5.00;99.90
45685;DHT22;46836;48.388;16.210;2024-02-26T04:40:06;5.00;99.90
45685;DHT22;46836;48.388;16.210;2024-02-26T04:42:34;5.00;99.90
45685;DHT22;46836;48.388;16.210;2024-02-26T04:45:02;4.90;99.90
45685;DHT22;46836;48.388;16.210;2024-02-26T04:47:29;4.90;99.90
45685;DHT22;46836;48.388;16.210;2024-02-26T04:49:57;4.90;99.90
45685;DHT22;46836;48.388;16.210;2024-02-26T04:52:24;4.90;99.90
45685;DHT22;46836;48.388;16.210;2024-02-26T04:54:51;4.90;99.90
45685;DHT22;46836;48.388;16.210;2024-02-26T04:57:18;5.00;99.90
45685;DHT22;46836;48.388;16.210;2024-02-26T04:59:45;5.00;99.90
45685;DHT22;46836;48.388;16.210;2024-02-26T05:02:13;5.00;99.90
45685;DHT22;46836;48.388;16.210;2024-02-26T05:04:41;5.00;99.90
45685;DHT22;46836;48.388;16.210;2024-02-26T05:07:08;5.00;99.90
45685;DHT22;46836;48.388;16.210;2024-02-26T05:09:35;5.00;99.90
45685;DHT22;46836;48.388;16.210;2024-02-26T05:12:02;5.00;99.90
45685;DHT22;46836;48.388;16.210;2024-02-26T05:14:30;5.00;99.90
45685;DHT22;46836;48.388;16.210;2024-02-26T05:16:57;5.00;99.90
45685;DHT22;46836;48.388;16.210;2024-02-26T05:19:24;5.00;99.90
45685;DHT22;46836;48.388;16.210;2024-02-26T05:21:52;5.00;99.90
45685;DHT22;46836;48.388;16.210;2024-02-26T05:24:19;5.00;99.90
45685;DHT22;46836;48.388;16.210;2024-02-26T05:26:50;5.00;99.90
45685;DHT22;46836;48.388;16.210;2024-02-26T05:29:17;4.90;99.90
45685;DHT22;46836;48.388;16.210;2024-02-26T05:31:44;4.90;99.90
45685;DHT22;46836;48.388;16.210;2024-02-26T05:34:11;4.90;99.90
45685;DHT22;46836;48.388;16.210;2024-02-26T05:36:38;5.00;99.90
45685;DHT22;46836;48.388;16.210;2024-02-26T05:39:06;4.90;99.90
45685;DHT22;46836;48.388;16.210;2024-02-26T05:41:37;4.90;99.90
45685;DHT22;46836;48.388;16.210;2024-02-26T05:44:04;4.90;99.90
45685;DHT22;46836;48.388;16.210;2024-02-26T05:46:32;5.00;99.90
45685;DHT22;46836;48.388;16.210;2024-02-26T05:48:59;4.90;99.90
45685;DHT22;46836;48.388;16.210;2024-02-26T05:51:26;5.00;99.90
45685;DHT22;46836;48.388;16.210;2024-02-26T05:53:53;5.00;99.90
45685;DHT22;46836;48.388;16.210;2024-02-26T05:56:22;5.00;99.90
45685;DHT22;46836;48.388;16.210;2024-02-26T05:58:50;5.00;99.90
45685;DHT22;46836;48.388;16.210;2024-02-26T06:01:17;5.00;99.90
45685;DHT22;46836;48.388;16.210;2024-02-26T06:03:44;4.90;99.90
45685;DHT22;46836;48.388;16.210;2024-02-26T06:06:12;5.00;99.90
45685;DHT22;46836;48.388;16.210;2024-02-26T06:08:40;5.00;99.90
45685;DHT22;46836;48.388;16.210;2024-02-26T06:11:07;5.00;99.90
45685;DHT22;46836;48.388;16.210;2024-02-26T06:13:35;5.10;99.90
45685;DHT22;46836;48.388;16.210;2024-02-26T06:16:02;5.10;99.90
45685;DHT22;46836;48.388;16.210;2024-02-26T06:18:30;5.10;99.90
45685;DHT22;46836;48.388;16.210;2024-02-26T06:20:57;5.10;99.90
45685;DHT22;46836;48.388;16.210;2024-02-26T06:23:25;5.20;99.90
45685;DHT22;46836;48.388;16.210;2024-02-26T06:25:52;5.30;99.90
45685;DHT22;46836;48.388;16.210;2024-02-26T06:28:19;5.40;99.90
45685;DHT22;46836;48.388;16.210;2024-02-26T06:30:47;5.40;99.90
45685;DHT22;46836;48.388;16.210;2024-02-26T06:33:14;5.50;99.90
45685;DHT22;46836;48.388;16.210;2024-02-26T06:35:41;5.50;99.90
45685;DHT22;46836;48.388;16.210;2024-02-26T06:38:09;5.60;99.90
45685;DHT22;46836;48.388;16.210;2024-02-26T06:40:37;5.60;99.90
45685;DHT22;46836;48.388;16.210;2024-02-26T06:43:04;5.70;99.90
45685;DHT22;46836;48.388;16.210;2024-02-26T06:45:31;5.80;99.90
45685;DHT22;46836;48.388;16.210;2024-02-26T06:47:58;5.90;99.90
45685;DHT22;46836;48.388;16.210;2024-02-26T06:50:26;6.00;99.90
45685;DHT22;46836;48.388;16.210;2024-02-26T06:52:53;6.10;99.90
45685;DHT22;46836;48.388;16.210;2024-02-26T06:55:20;6.20;99.90
45685;DHT22;46836;48.388;16.210;2024-02-26T06:57:47;6.30;99.90
45685;DHT22;46836;48.388;16.210;2024-02-26T07:00:15;6.40;99.90
45685;DHT22;46836;48.388;16.210;2024-02-26T07:02:43;6.50;99.90
45685;DHT22;46836;48.388;16.210;2024-02-26T07:05:11;6.70;99.90
45685;DHT22;46836;48.388;16.210;2024-02-26T07:07:39;6.80;99.90
45685;DHT22;46836;48.388;16.210;2024-02-26T07:10:07;7.00;99.90
45685;DHT22;46836;48.388;16.210;2024-02-26T07:12:35;7.00;99.90
45685;DHT22;46836;48.388;16.210;2024-02-26T07:15:02;7.20;99.90
45685;DHT22;46836;48.388;16.210;2024-02-26T07:17:30;7.20;99.90
45685;DHT22;46836;48.388;16.210;2024-02-26T07:19:57;7.40;99.90
45685;DHT22;46836;48.388;16.210;2024-02-26T07:22:24;7.40;99.90
45685;DHT22;46836;48.388;16.210;2024-02-26T07:24:51;7.50;99.90
45685;DHT22;46836;48.388;16.210;2024-02-26T07:27:18;7.60;99.90
45685;DHT22;46836;48.388;16.210;2024-02-26T07:29:48;7.70;99.90
45685;DHT22;46836;48.388;16.210;2024-02-26T07:32:15;7.90;99.90
45685;DHT22;46836;48.388;16.210;2024-02-26T07:34:42;8.00;99.90
45685;DHT22;46836;48.388;16.210;2024-02-26T07:37:12;8.10;99.90
45685;DHT22;46836;48.388;16.210;2024-02-26T07:39:39;8.10;99.90
45685;DHT22;46836;48.388;16.210;2024-02-26T07:42:06;8.30;99.90
45685;DHT22;46836;48.388;16.210;2024-02-26T07:44:33;8.30;99.90
45685;DHT22;46836;48.388;16.210;2024-02-26T07:47:00;8.40;99.90
45685;DHT22;46836;48.388;16.210;2024-02-26T07:49:28;8.50;99.90
45685;DHT22;46836;48.388;16.210;2024-02-26T07:51:55;8.60;99.90
45685;DHT22;46836;48.388;16.210;2024-02-26T07:54:25;8.70;99.90
45685;DHT22;46836;48.388;16.210;2024-02-26T07:56:52;8.80;99.90
45685;DHT22;46836;48.388;16.210;2024-02-26T07:59:19;8.90;99.90
45685;DHT22;46836;48.388;16.210;2024-02-26T08:01:50;9.00;99.90
45685;DHT22;46836;48.388;16.210;2024-02-26T08:04:24;9.00;99.90
45685;DHT22;46836;48.388;16.210;2024-02-26T08:06:52;9.10;99.90
45685;DHT22;46836;48.388;16.210;2024-02-26T08:09:20;9.10;99.90
45685;DHT22;46836;48.388;16.210;2024-02-26T08:11:47;9.20;99.90
45685;DHT22;46836;48.388;16.210;2024-02-26T08:14:14;9.20;99.90
45685;DHT22;46836;48.388;16.210;2024-02-26T08:16:41;9.30;99.90
45685;DHT22;46836;48.388;16.210;2024-02-26T08:19:08;9.50;99.90
45685;DHT22;46836;48.388;16.210;2024-02-26T08:21:37;9.50;99.90
45685;DHT22;46836;48.388;16.210;2024-02-26T08:24:05;9.70;99.90
45685;DHT22;46836;48.388;16.210;2024-02-26T08:26:32;9.80;99.90
45685;DHT22;46836;48.388;16.210;2024-02-26T08:28:59;9.90;99.90
45685;DHT22;46836;48.388;16.210;2024-02-26T08:31:26;10.00;99.90
45685;DHT22;46836;48.388;16.210;2024-02-26T08:33:54;10.10;99.90
45685;DHT22;46836;48.388;16.210;2024-02-26T08:36:22;10.00;99.90
45685;DHT22;46836;48.388;16.210;2024-02-26T08:38:49;10.10;99.90
45685;DHT22;46836;48.388;16.210;2024-02-26T08:41:16;10.10;99.90
45685;DHT22;46836;48.388;16.210;2024-02-26T08:43:43;10.20;99.90
45685;DHT22;46836;48.388;16.210;2024-02-26T08:46:13;10.20;99.90
45685;DHT22;46836;48.388;16.210;2024-02-26T08:48:40;10.20;99.90
45685;DHT22;46836;48.388;16.210;2024-02-26T08:51:08;10.20;99.90
45685;DHT22;46836;48.388;16.210;2024-02-26T08:53:36;10.30;99.90
45685;DHT22;46836;48.388;16.210;2024-02-26T08:56:10;10.40;99.90
45685;DHT22;46836;48.388;16.210;2024-02-26T08:58:45;10.50;99.90
45685;DHT22;46836;48.388;16.210;2024-02-26T09:01:13;10.70;99.90
45685;DHT22;46836;48.388;16.210;2024-02-26T09:03:40;10.80;99.90
45685;DHT22;46836;48.388;16.210;2024-02-26T09:06:07;10.90;99.90
45685;DHT22;46836;48.388;16.210;2024-02-26T09:08:34;11.00;99.90
45685;DHT22;46836;48.388;16.210;2024-02-26T09:11:05;11.10;99.90
45685;DHT22;46836;48.388;16.210;2024-02-26T09:13:32;11.10;99.90
45685;DHT22;46836;48.388;16.210;2024-02-26T09:15:59;11.20;99.90
45685;DHT22;46836;48.388;16.210;2024-02-26T09:18:26;11.20;99.90
45685;DHT22;46836;48.388;16.210;2024-02-26T09:20:56;11.30;99.90
45685;DHT22;46836;48.388;16.210;2024-02-26T09:23:23;11.50;99.90
45685;DHT22;46836;48.388;16.210;2024-02-26T09:25:50;11.60;99.90
45685;DHT22;46836;48.388;16.210;2024-02-26T09:28:17;11.70;99.90
45685;DHT22;46836;48.388;16.210;2024-02-26T09:30:44;11.70;99.90
45685;DHT22;46836;48.388;16.210;2024-02-26T09:33:13;11.80;99.90
45685;DHT22;46836;48.388;16.210;2024-02-26T09:35:41;11.80;99.90
45685;DHT22;46836;48.388;16.210;2024-02-26T09:38:08;12.00;99.90
45685;DHT22;46836;48.388;16.210;2024-02-26T09:40:36;12.00;99.90
45685;DHT22;46836;48.388;16.210;2024-02-26T09:43:05;12.10;99.90
45685;DHT22;46836;48.388;16.210;2024-02-26T09:45:33;12.10;99.90
45685;DHT22;46836;48.388;16.210;2024-02-26T09:48:01;12.10;99.90
45685;DHT22;46836;48.388;16.210;2024-02-26T09:50:29;12.20;99.90
45685;DHT22;46836;48.388;16.210;2024-02-26T09:52:56;12.30;99.90
45685;DHT22;46836;48.388;16.210;2024-02-26T09:55:26;12.40;99.90
45685;DHT22;46836;48.388;16.210;2024-02-26T09:57:54;12.50;99.90
45685;DHT22;46836;48.388;16.210;2024-02-26T10:00:22;12.60;99.90
45685;DHT22;46836;48.388;16.210;2024-02-26T10:02:50;12.70;99.90
45685;DHT22;46836;48.388;16.210;2024-02-26T10:05:18;12.90;99.90
45685;DHT22;46836;48.388;16.210;2024-02-26T10:07:46;13.00;99.90
45685;DHT22;46836;48.388;16.210;2024-02-26T10:10:14;13.10;99.90
45685;DHT22;46836;48.388;16.210;2024-02-26T10:12:41;13.20;99.90
45685;DHT22;46836;48.388;16.210;2024-02-26T10:15:09;13.30;99.90
45685;DHT22;46836;48.388;16.210;2024-02-26T10:17:36;13.30;99.90
45685;DHT22;46836;48.388;16.210;2024-02-26T10:20:23;13.40;99.90
45685;DHT22;46836;48.388;16.210;2024-02-26T10:22:50;13.50;99.90
45685;DHT22;46836;48.388;16.210;2024-02-26T10:25:19;13.70;99.90
45685;DHT22;46836;48.388;16.210;2024-02-26T10:27:47;13.70;99.90
45685;DHT22;46836;48.388;16.210;2024-02-26T10:30:18;13.90;99.90
45685;DHT22;46836;48.388;16.210;2024-02-26T10:32:46;14.00;99.90
45685;DHT22;46836;48.388;16.210;2024-02-26T10:35:15;14.10;99.90
45685;DHT22;46836;48.388;16.210;2024-02-26T10:37:44;14.20;99.90
45685;DHT22;46836;48.388;16.210;2024-02-26T10:40:12;14.30;99.90
45685;DHT22;46836;48.388;16.210;2024-02-26T10:42:40;14.40;99.90
45685;DHT22;46836;48.388;16.210;2024-02-26T10:45:09;14.40;99.90
45685;DHT22;46836;48.388;16.210;2024-02-26T10:47:37;14.50;99.90
45685;DHT22;46836;48.388;16.210;2024-02-26T10:50:05;14.60;99.90
45685;DHT22;46836;48.388;16.210;2024-02-26T10:52:35;14.70;99.90
45685;DHT22;46836;48.388;16.210;2024-02-26T10:55:04;14.70;99.90
45685;DHT22;46836;48.388;16.210;2024-02-26T10:57:41;14.70;99.90
45685;DHT22;46836;48.388;16.210;2024-02-26T11:00:13;14.80;99.90
45685;DHT22;46836;48.388;16.210;2024-02-26T11:02:41;14.80;99.90
45685;DHT22;46836;48.388;16.210;2024-02-26T11:05:08;14.70;99.90
45685;DHT22;46836;48.388;16.210;2024-02-26T11:07:38;14.70;99.90
45685;DHT22;46836;48.388;16.210;2024-02-26T11:10:09;14.80;99.90
45685;DHT22;46836;48.388;16.210;2024-02-26T11:12:39;14.80;99.90
45685;DHT22;46836;48.388;16.210;2024-02-26T11:15:08;14.80;99.90
45685;DHT22;46836;48.388;16.210;2024-02-26T11:17:36;14.80;99.90
45685;DHT22;46836;48.388;16.210;2024-02-26T11:20:09;14.80;99.90
45685;DHT22;46836;48.388;16.210;2024-02-26T11:22:36;14.80;99.90
45685;DHT22;46836;48.388;16.210;2024-02-26T11:25:04;14.90;99.90
45685;DHT22;46836;48.388;16.210;2024-02-26T11:27:42;14.90;99.90
45685;DHT22;46836;48.388;16.210;2024-02-26T11:30:11;15.00;99.90
45685;DHT22;46836;48.388;16.210;2024-02-26T11:32:39;15.00;99.90
45685;DHT22;46836;48.388;16.210;2024-02-26T11:35:07;15.10;99.90
45685;DHT22;46836;48.388;16.210;2024-02-26T11:37:37;15.10;99.90
45685;DHT22;46836;48.388;16.210;2024-02-26T11:40:14;15.10;99.90
45685;DHT22;46836;48.388;16.210;2024-02-26T11:42:45;15.10;99.90
45685;DHT22;46836;48.388;16.210;2024-02-26T11:48:14;15.10;99.90
45685;DHT22;46836;48.388;16.210;2024-02-26T11:50:45;15.10;99.90
45685;DHT22;46836;48.388;16.210;2024-02-26T11:59:10;15.00;99.90
45685;DHT22;46836;48.388;16.210;2024-02-26T12:01:48;14.90;99.90
45685;DHT22;46836;48.388;16.210;2024-02-26T12:04:21;15.00;99.90
45685;DHT22;46836;48.388;16.210;2024-02-26T12:06:57;15.00;99.90
45685;DHT22;46836;48.388;16.210;2024-02-26T12:12:05;15.00;99.90
45685;DHT22;46836;48.388;16.210;2024-02-26T12:14:35;14.90;99.90
45685;DHT22;46836;48.388;16.210;2024-02-26T12:17:04;15.00;99.90
45685;DHT22;46836;48.388;16.210;2024-02-26T12:19:37;15.00;99.90
45685;DHT22;46836;48.388;16.210;2024-02-26T12:22:13;15.00;99.90
45685;DHT22;46836;48.388;16.210;2024-02-26T12:24:41;15.00;99.90
45685;DHT22;46836;48.388;16.210;2024-02-26T12:27:08;15.10;99.90
45685;DHT22;46836;48.388;16.210;2024-02-26T12:29:35;15.20;99.90
45685;DHT22;46836;48.388;16.210;2024-02-26T12:32:05;15.30;99.90
45685;DHT22;46836;48.388;16.210;2024-02-26T12:34:34;15.40;99.90
45685;DHT22;46836;48.388;16.210;2024-02-26T12:37:01;15.50;99.90
45685;DHT22;46836;48.388;16.210;2024-02-26T12:39:29;15.60;99.90
45685;DHT22;46836;48.388;16.210;2024-02-26T12:41:58;15.70;99.90
45685;DHT22;46836;48.388;16.210;2024-02-26T12:44:26;15.90;99.90
45685;DHT22;46836;48.388;16.210;2024-02-26T12:47:01;15.80;99.90
45685;DHT22;46836;48.388;16.210;2024-02-26T12:49:30;15.80;99.90
45685;DHT22;46836;48.388;16.210;2024-02-26T12:51:58;15.70;99.90
45685;DHT22;46836;48.388;16.210;2024-02-26T12:54:30;15.70;99.90
45685;DHT22;46836;48.388;16.210;2024-02-26T12:57:00;15.70;99.90
45685;DHT22;46836;48.388;16.210;2024-02-26T12:59:29;15.80;99.90
45685;DHT22;46836;48.388;16.210;2024-02-26T13:01:57;15.90;99.90
45685;DHT22;46836;48.388;16.210;2024-02-26T13:04:27;15.90;99.90
45685;DHT22;46836;48.388;16.210;2024-02-26T13:06:57;16.10;99.90
45685;DHT22;46836;48.388;16.210;2024-02-26T13:09:33;16.30;99.90
45685;DHT22;46836;48.388;16.210;2024-02-26T13:12:07;16.50;99.90
45685;DHT22;46836;48.388;16.210;2024-02-26T13:14:35;16.50;99.90
45685;DHT22;46836;48.388;16.210;2024-02-26T13:17:03;16.40;99.90
45685;DHT22;46836;48.388;16.210;2024-02-26T13:19:30;16.20;99.90
45685;DHT22;46836;48.388;16.210;2024-02-26T13:22:07;16.00;99.90
45685;DHT22;46836;48.388;16.210;2024-02-26T13:24:35;15.90;99.90
45685;DHT22;46836;48.388;16.210;2024-02-26T13:27:03;15.80;99.90
45685;DHT22;46836;48.388;16.210;2024-02-26T13:29:32;15.80;99.90
45685;DHT22;46836;48.388;16.210;2024-02-26T13:31:59;15.80;99.90
45685;DHT22;46836;48.388;16.210;2024-02-26T13:34:27;15.70;99.90
45685;DHT22;46836;48.388;16.210;2024-02-26T13:36:55;15.70;99.90
45685;DHT22;46836;48.388;16.210;2024-02-26T13:39:24;15.60;99.90
45685;DHT22;46836;48.388;16.210;2024-02-26T13:41:52;15.60;99.90
45685;DHT22;46836;48.388;16.210;2024-02-26T13:44:20;15.50;99.90
45685;DHT22;46836;48.388;16.210;2024-02-26T13:46:48;15.60;99.90
45685;DHT22;46836;48.388;16.210;2024-02-26T13:49:16;15.50;99.90
45685;DHT22;46836;48.388;16.210;2024-02-26T13:51:44;15.50;99.90
45685;DHT22;46836;48.388;16.210;2024-02-26T13:54:11;15.40;99.90
45685;DHT22;46836;48.388;16.210;2024-02-26T13:56:38;15.40;99.90
45685;DHT22;46836;48.388;16.210;2024-02-26T13:59:05;15.40;99.90
45685;DHT22;46836;48.388;16.210;2024-02-26T14:01:32;15.30;99.90
45685;DHT22;46836;48.388;16.210;2024-02-26T14:04:00;15.20;99.90
45685;DHT22;46836;48.388;16.210;2024-02-26T14:06:29;15.20;99.90
45685;DHT22;46836;48.388;16.210;2024-02-26T14:08:58;15.20;99.90
45685;DHT22;46836;48.388;16.210;2024-02-26T14:11:26;15.10;99.90
45685;DHT22;46836;48.388;16.210;2024-02-26T14:13:53;15.10;99.90
45685;DHT22;46836;48.388;16.210;2024-02-26T14:16:20;15.00;99.90
45685;DHT22;46836;48.388;16.210;2024-02-26T14:18:47;15.00;99.90
45685;DHT22;46836;48.388;16.210;2024-02-26T14:21:15;15.00;99.90
45685;DHT22;46836;48.388;16.210;2024-02-26T14:23:42;14.90;99.90
45685;DHT22;46836;48.388;16.210;2024-02-26T14:26:11;14.90;99.90
45685;DHT22;46836;48.388;16.210;2024-02-26T14:28:38;14.90;99.90
45685;DHT22;46836;48.388;16.210;2024-02-26T14:31:06;15.00;99.90
45685;DHT22;46836;48.388;16.210;2024-02-26T14:33:34;14.90;99.90
45685;DHT22;46836;48.388;16.210;2024-02-26T14:36:04;14.90;99.90
45685;DHT22;46836;48.388;16.210;2024-02-26T14:38:33;14.80;99.90
45685;DHT22;46836;48.388;16.210;2024-02-26T14:41:00;14.80;99.90
45685;DHT22;46836;48.388;16.210;2024-02-26T14:43:27;14.80;99.90
45685;DHT22;46836;48.388;16.210;2024-02-26T14:45:54;14.80;99.90
45685;DHT22;46836;48.388;16.210;2024-02-26T14:48:20;14.70;99.90
45685;DHT22;46836;48.388;16.210;2024-02-26T14:50:48;14.70;99.90
45685;DHT22;46836;48.388;16.210;2024-02-26T14:53:16;14.60;99.90
45685;DHT22;46836;48.388;16.210;2024-02-26T14:55:43;14.50;99.90
45685;DHT22;46836;48.388;16.210;2024-02-26T14:58:11;14.50;99.90
45685;DHT22;46836;48.388;16.210;2024-02-26T15:00:41;14.50;99.90
45685;DHT22;46836;48.388;16.210;2024-02-26T15:03:08;14.40;99.90
45685;DHT22;46836;48.388;16.210;2024-02-26T15:05:35;14.40;99.90
45685;DHT22;46836;48.388;16.210;2024-02-26T15:08:02;14.40;99.90
45685;DHT22;46836;48.388;16.210;2024-02-26T15:10:30;14.30;99.90
45685;DHT22;46836;48.388;16.210;2024-02-26T15:12:57;14.30;99.90
45685;DHT22;46836;48.388;16.210;2024-02-26T15:15:24;14.20;99.90
45685;DHT22;46836;48.388;16.210;2024-02-26T15:17:51;14.20;99.90
45685;DHT22;46836;48.388;16.210;2024-02-26T15:20:19;14.10;99.90
45685;DHT22;46836;48.388;16.210;2024-02-26T15:22:46;14.00;99.90
45685;DHT22;46836;48.388;16.210;2024-02-26T15:25:13;13.90;99.90
45685;DHT22;46836;48.388;16.210;2024-02-26T15:27:42;13.90;99.90
45685;DHT22;46836;48.388;16.210;2024-02-26T15:30:09;13.80;99.90
45685;DHT22;46836;48.388;16.210;2024-02-26T15:32:36;13.80;99.90
45685;DHT22;46836;48.388;16.210;2024-02-26T15:35:04;13.70;99.90
45685;DHT22;46836;48.388;16.210;2024-02-26T15:37:31;13.70;99.90
45685;DHT22;46836;48.388;16.210;2024-02-26T15:39:58;13.60;99.90
45685;DHT22;46836;48.388;16.210;2024-02-26T15:42:25;13.60;99.90